sensor_id;sensor_type;location;lat;lon;timestamp;temperature;humidity
8436;DHT22;4255;48.730;9.156;2022-11-21T00:00:15;5.60;99.90
8436;DHT22;4255;48.730;9.156;2022-11-21T00:02:41;5.60;99.90
8436;DHT22;4255;48.730;9.156;2022-11-21T00:05:06;5.70;99.90
8436;DHT22;4255;48.730;9.156;2022-11-21T00:07:32;5.70;99.90
8436;DHT22;4255;48.730;9.156;2022-11-21T00:09:58;5.30;99.90
8436;DHT22;4255;48.730;9.156;2022-11-21T00:12:24;5.40;99.90
8436;DHT22;4255;48.730;9.156;2022-11-21T00:14:49;5.30;99.90
8436;DHT22;4255;48.730;9.156;2022-11-21T00:17:15;5.20;99.90
8436;DHT22;4255;48.730;9.156;2022-11-21T00:19:41;5.10;99.90
8436;DHT22;4255;48.730;9.156;2022-11-21T00:22:07;5.20;99.90
8436;DHT22;4255;48.730;9.156;2022-11-21T00:24:32;5.40;99.90
8436;DHT22;4255;48.730;9.156;2022-11-21T00:26:58;5.40;99.90
8436;DHT22;4255;48.730;9.156;2022-11-21T00:29:24;5.40;99.90
8436;DHT22;4255;48.730;9.156;2022-11-21T00:31:49;5.40;99.90
8436;DHT22;4255;48.730;9.156;2022-11-21T00:34:15;5.30;99.90
8436;DHT22;4255;48.730;9.156;2022-11-21T00:36:41;5.30;99.90
8436;DHT22;4255;48.730;9.156;2022-11-21T00:39:07;5.10;99.90
8436;DHT22;4255;48.730;9.156;2022-11-21T00:41:32;5.20;99.90
8436;DHT22;4255;48.730;9.156;2022-11-21T00:43:58;5.20;99.90
8436;DHT22;4255;48.730;9.156;2022-11-21T00:46:23;5.20;99.90
8436;DHT22;4255;48.730;9.156;2022-11-21T00:48:49;5.20;99.90
8436;DHT22;4255;48.730;9.156;2022-11-21T00:51:15;5.00;99.90
8436;DHT22;4255;48.730;9.156;2022-11-21T00:53:40;5.00;99.90
8436;DHT22;4255;48.730;9.156;2022-11-21T00:56:06;5.00;99.90
8436;DHT22;4255;48.730;9.156;2022-11-21T00:58:32;5.00;99.90
8436;DHT22;4255;48.730;9.156;2022-11-21T01:01:02;4.90;99.90
8436;DHT22;4255;48.730;9.156;2022-11-21T01:03:28;4.80;99.90
8436;DHT22;4255;48.730;9.156;2022-11-21T01:05:59;4.80;99.90
8436;DHT22;4255;48.730;9.156;2022-11-21T01:08:25;4.80;99.90
8436;DHT22;4255;48.730;9.156;2022-11-21T01:10:51;4.90;99.90
8436;DHT22;4255;48.730;9.156;2022-11-21T01:13:16;4.90;99.90
8436;DHT22;4255;48.730;9.156;2022-11-21T01:15:42;4.90;99.90
8436;DHT22;4255;48.730;9.156;2022-11-21T01:18:07;4.80;99.90
8436;DHT22;4255;48.730;9.156;2022-11-21T01:20:40;4.90;99.90
8436;DHT22;4255;48.730;9.156;2022-11-21T01:23:06;5.00;99.90
8436;DHT22;4255;48.730;9.156;2022-11-21T01:25:35;5.10;99.90
8436;DHT22;4255;48.730;9.156;2022-11-21T01:28:01;5.10;99.90
8436;DHT22;4255;48.730;9.156;2022-11-21T01:30:26;5.10;99.90
8436;DHT22;4255;48.730;9.156;2022-11-21T01:32:52;5.10;99.90
8436;DHT22;4255;48.730;9.156;2022-11-21T01:35:18;5.10;99.90
8436;DHT22;4255;48.730;9.156;2022-11-21T01:37:47;5.00;99.90
8436;DHT22;4255;48.730;9.156;2022-11-21T01:40:13;4.90;99.90
8436;DHT22;4255;48.730;9.156;2022-11-21T01:43:02;4.80;99.90
8436;DHT22;4255;48.730;9.156;2022-11-21T01:45:51;4.60;99.90
8436;DHT22;4255;48.730;9.156;2022-11-21T01:57:17;5.00;99.90
8436;DHT22;4255;48.730;9.156;2022-11-21T01:59:50;5.00;99.90
8436;DHT22;4255;48.730;9.156;2022-11-21T02:02:20;5.00;99.90
8436;DHT22;4255;48.730;9.156;2022-11-21T02:04:47;5.00;99.90
8436;DHT22;4255;48.730;9.156;2022-11-21T02:07:15;5.00;99.90
8436;DHT22;4255;48.730;9.156;2022-11-21T02:09:44;4.80;99.90
8436;DHT22;4255;48.730;9.156;2022-11-21T02:12:22;4.80;99.90
8436;DHT22;4255;48.730;9.156;2022-11-21T02:14:50;4.90;99.90
8436;DHT22;4255;48.730;9.156;2022-11-21T02:17:17;4.80;99.90
8436;DHT22;4255;48.730;9.156;2022-11-21T02:19:54;4.70;99.90
8436;DHT22;4255;48.730;9.156;2022-11-21T02:25:12;4.70;99.90
8436;DHT22;4255;48.730;9.156;2022-11-21T02:27:39;4.60;99.90
8436;DHT22;4255;48.730;9.156;2022-11-21T02:30:06;4.60;99.90
8436;DHT22;4255;48.730;9.156;2022-11-21T02:32:41;4.70;99.90
8436;DHT22;4255;48.730;9.156;2022-11-21T02:35:11;4.70;99.90
8436;DHT22;4255;48.730;9.156;2022-11-21T02:37:37;4.80;99.90
8436;DHT22;4255;48.730;9.156;2022-11-21T02:40:08;4.80;99.90
8436;DHT22;4255;48.730;9.156;2022-11-21T02:45:32;4.80;99.90
8436;DHT22;4255;48.730;9.156;2022-11-21T02:47:59;4.70;99.90
8436;DHT22;4255;48.730;9.156;2022-11-21T02:50:33;4.60;99.90
8436;DHT22;4255;48.730;9.156;2022-11-21T02:52:59;4.70;99.90
8436;DHT22;4255;48.730;9.156;2022-11-21T02:55:25;4.70;99.90
8436;DHT22;4255;48.730;9.156;2022-11-21T02:57:52;4.90;99.90
8436;DHT22;4255;48.730;9.156;2022-11-21T03:00:18;5.00;99.90
8436;DHT22;4255;48.730;9.156;2022-11-21T03:02:44;4.80;99.90
8436;DHT22;4255;48.730;9.156;2022-11-21T03:05:11;4.60;99.90
8436;DHT22;4255;48.730;9.156;2022-11-21T03:07:37;4.50;99.90
8436;DHT22;4255;48.730;9.156;2022-11-21T03:10:03;4.60;99.90
8436;DHT22;4255;48.730;9.156;2022-11-21T03:12:29;4.60;99.90
8436;DHT22;4255;48.730;9.156;2022-11-21T03:14:55;4.60;99.90
8436;DHT22;4255;48.730;9.156;2022-11-21T03:17:20;4.50;99.90
8436;DHT22;4255;48.730;9.156;2022-11-21T03:19:46;4.50;99.90
8436;DHT22;4255;48.730;9.156;2022-11-21T03:22:13;4.50;99.90
8436;DHT22;4255;48.730;9.156;2022-11-21T03:24:38;4.60;99.90
8436;DHT22;4255;48.730;9.156;2022-11-21T03:27:04;4.70;99.90
8436;DHT22;4255;48.730;9.156;2022-11-21T03:29:30;4.70;99.90
8436;DHT22;4255;48.730;9.156;2022-11-21T03:31:55;4.70;99.90
8436;DHT22;4255;48.730;9.156;2022-11-21T03:34:21;4.60;99.90
8436;DHT22;4255;48.730;9.156;2022-11-21T03:36:47;4.80;99.90
8436;DHT22;4255;48.730;9.156;2022-11-21T03:39:12;4.80;99.90
8436;DHT22;4255;48.730;9.156;2022-11-21T03:41:38;4.80;99.90
8436;DHT22;4255;48.730;9.156;2022-11-21T03:44:09;5.00;99.90
8436;DHT22;4255;48.730;9.156;2022-11-21T03:46:41;5.10;99.90
8436;DHT22;4255;48.730;9.156;2022-11-21T03:49:08;5.30;99.90
8436;DHT22;4255;48.730;9.156;2022-11-21T03:51:34;5.20;99.90
8436;DHT22;4255;48.730;9.156;2022-11-21T03:54:00;5.40;99.90
8436;DHT22;4255;48.730;9.156;2022-11-21T03:56:26;5.50;99.90
8436;DHT22;4255;48.730;9.156;2022-11-21T03:58:53;5.50;99.90
8436;DHT22;4255;48.730;9.156;2022-11-21T04:01:19;5.60;99.90
8436;DHT22;4255;48.730;9.156;2022-11-21T04:03:45;5.50;99.90
8436;DHT22;4255;48.730;9.156;2022-11-21T04:06:12;5.40;99.90
8436;DHT22;4255;48.730;9.156;2022-11-21T04:08:38;5.60;99.90
8436;DHT22;4255;48.730;9.156;2022-11-21T04:11:04;5.80;99.90
8436;DHT22;4255;48.730;9.156;2022-11-21T04:13:30;5.90;99.90
8436;DHT22;4255;48.730;9.156;2022-11-21T04:15:56;6.20;99.90
8436;DHT22;4255;48.730;9.156;2022-11-21T04:18:21;6.10;99.90
8436;DHT22;4255;48.730;9.156;2022-11-21T04:20:47;6.20;99.90
8436;DHT22;4255;48.730;9.156;2022-11-21T04:23:13;6.30;99.90
8436;DHT22;4255;48.730;9.156;2022-11-21T04:25:39;6.20;99.90
8436;DHT22;4255;48.730;9.156;2022-11-21T04:28:05;6.30;99.90
8436;DHT22;4255;48.730;9.156;2022-11-21T04:30:32;6.30;99.90
8436;DHT22;4255;48.730;9.156;2022-11-21T04:32:58;6.30;99.90
8436;DHT22;4255;48.730;9.156;2022-11-21T04:35:24;6.20;99.90
8436;DHT22;4255;48.730;9.156;2022-11-21T04:37:51;6.40;99.90
8436;DHT22;4255;48.730;9.156;2022-11-21T04:40:17;6.40;99.90
8436;DHT22;4255;48.730;9.156;2022-11-21T04:42:44;6.50;99.90
8436;DHT22;4255;48.730;9.156;2022-11-21T04:45:10;6.60;99.90
8436;DHT22;4255;48.730;9.156;2022-11-21T04:47:41;6.70;99.90
8436;DHT22;4255;48.730;9.156;2022-11-21T04:50:09;6.70;99.90
8436;DHT22;4255;48.730;9.156;2022-11-21T04:52:34;6.80;99.90
8436;DHT22;4255;48.730;9.156;2022-11-21T04:55:00;6.80;99.90
8436;DHT22;4255;48.730;9.156;2022-11-21T04:57:27;6.70;99.90
8436;DHT22;4255;48.730;9.156;2022-11-21T04:59:53;6.50;99.90
8436;DHT22;4255;48.730;9.156;2022-11-21T05:02:19;6.30;99.90
8436;DHT22;4255;48.730;9.156;2022-11-21T05:04:44;6.30;99.90
8436;DHT22;4255;48.730;9.156;2022-11-21T05:07:10;6.30;99.90
8436;DHT22;4255;48.730;9.156;2022-11-21T05:09:36;6.10;99.90
8436;DHT22;4255;48.730;9.156;2022-11-21T05:12:01;6.00;99.90
8436;DHT22;4255;48.730;9.156;2022-11-21T05:14:46;6.10;99.90
8436;DHT22;4255;48.730;9.156;2022-11-21T05:17:11;6.00;99.90
8436;DHT22;4255;48.730;9.156;2022-11-21T05:19:37;5.90;99.90
8436;DHT22;4255;48.730;9.156;2022-11-21T05:22:02;5.80;99.90
8436;DHT22;4255;48.730;9.156;2022-11-21T05:24:28;5.80;99.90
8436;DHT22;4255;48.730;9.156;2022-11-21T05:26:54;5.70;99.90
8436;DHT22;4255;48.730;9.156;2022-11-21T05:29:20;5.60;99.90
8436;DHT22;4255;48.730;9.156;2022-11-21T05:31:45;5.70;99.90
8436;DHT22;4255;48.730;9.156;2022-11-21T05:34:11;5.70;99.90
8436;DHT22;4255;48.730;9.156;2022-11-21T05:36:37;5.60;99.90
8436;DHT22;4255;48.730;9.156;2022-11-21T05:39:02;5.70;99.90
8436;DHT22;4255;48.730;9.156;2022-11-21T05:41:28;5.70;99.90
8436;DHT22;4255;48.730;9.156;2022-11-21T05:43:54;5.80;99.90
8436;DHT22;4255;48.730;9.156;2022-11-21T05:46:22;5.80;99.90
8436;DHT22;4255;48.730;9.156;2022-11-21T05:48:48;5.90;99.90
8436;DHT22;4255;48.730;9.156;2022-11-21T05:51:15;5.80;99.90
8436;DHT22;4255;48.730;9.156;2022-11-21T05:53:41;5.70;99.90
8436;DHT22;4255;48.730;9.156;2022-11-21T05:56:09;5.60;99.90
8436;DHT22;4255;48.730;9.156;2022-11-21T05:58:35;5.50;99.90
8436;DHT22;4255;48.730;9.156;2022-11-21T06:01:02;5.50;99.90
8436;DHT22;4255;48.730;9.156;2022-11-21T06:03:30;5.60;99.90
8436;DHT22;4255;48.730;9.156;2022-11-21T06:06:02;5.70;99.90
8436;DHT22;4255;48.730;9.156;2022-11-21T06:08:35;5.80;99.90
8436;DHT22;4255;48.730;9.156;2022-11-21T06:11:01;5.90;99.90
8436;DHT22;4255;48.730;9.156;2022-11-21T06:13:27;6.10;99.90
8436;DHT22;4255;48.730;9.156;2022-11-21T06:18:35;6.40;99.90
8436;DHT22;4255;48.730;9.156;2022-11-21T06:23:27;6.50;99.90
8436;DHT22;4255;48.730;9.156;2022-11-21T06:26:01;6.60;99.90
8436;DHT22;4255;48.730;9.156;2022-11-21T06:28:30;6.60;99.90
8436;DHT22;4255;48.730;9.156;2022-11-21T06:30:56;6.60;99.90
8436;DHT22;4255;48.730;9.156;2022-11-21T06:33:22;6.50;99.90
8436;DHT22;4255;48.730;9.156;2022-11-21T06:35:48;6.50;99.90
8436;DHT22;4255;48.730;9.156;2022-11-21T06:38:13;6.50;99.90
8436;DHT22;4255;48.730;9.156;2022-11-21T06:40:43;6.40;99.90
8436;DHT22;4255;48.730;9.156;2022-11-21T06:43:08;6.40;99.90
8436;DHT22;4255;48.730;9.156;2022-11-21T06:45:34;6.20;99.90
8436;DHT22;4255;48.730;9.156;2022-11-21T06:48:02;6.20;99.90
8436;DHT22;4255;48.730;9.156;2022-11-21T06:50:29;6.20;99.90
8436;DHT22;4255;48.730;9.156;2022-11-21T06:52:59;6.10;99.90
8436;DHT22;4255;48.730;9.156;2022-11-21T06:55:25;6.00;99.90
8436;DHT22;4255;48.730;9.156;2022-11-21T06:57:52;5.90;99.90
8436;DHT22;4255;48.730;9.156;2022-11-21T07:00:18;5.80;99.90
8436;DHT22;4255;48.730;9.156;2022-11-21T07:02:45;5.80;99.90
8436;DHT22;4255;48.730;9.156;2022-11-21T07:05:11;5.80;99.90
8436;DHT22;4255;48.730;9.156;2022-11-21T07:07:36;5.90;99.90
8436;DHT22;4255;48.730;9.156;2022-11-21T07:10:02;5.80;99.90
8436;DHT22;4255;48.730;9.156;2022-11-21T07:12:28;5.70;99.90
8436;DHT22;4255;48.730;9.156;2022-11-21T07:15:13;5.80;99.90
8436;DHT22;4255;48.730;9.156;2022-11-21T07:17:38;5.90;99.90
8436;DHT22;4255;48.730;9.156;2022-11-21T07:20:04;6.00;99.90
8436;DHT22;4255;48.730;9.156;2022-11-21T07:22:30;6.20;99.90
8436;DHT22;4255;48.730;9.156;2022-11-21T07:24:56;6.20;99.90
8436;DHT22;4255;48.730;9.156;2022-11-21T07:27:21;6.40;99.90
8436;DHT22;4255;48.730;9.156;2022-11-21T07:29:47;6.30;99.90
8436;DHT22;4255;48.730;9.156;2022-11-21T07:32:13;6.30;99.90
8436;DHT22;4255;48.730;9.156;2022-11-21T07:34:39;6.30;99.90
8436;DHT22;4255;48.730;9.156;2022-11-21T07:37:05;6.30;99.90
8436;DHT22;4255;48.730;9.156;2022-11-21T07:39:30;6.20;99.90
8436;DHT22;4255;48.730;9.156;2022-11-21T07:41:56;6.20;99.90
8436;DHT22;4255;48.730;9.156;2022-11-21T07:44:22;6.10;99.90
8436;DHT22;4255;48.730;9.156;2022-11-21T07:46:47;6.10;99.90
8436;DHT22;4255;48.730;9.156;2022-11-21T07:49:13;6.20;99.90
8436;DHT22;4255;48.730;9.156;2022-11-21T07:51:38;6.00;99.90
8436;DHT22;4255;48.730;9.156;2022-11-21T07:54:04;6.00;99.90
8436;DHT22;4255;48.730;9.156;2022-11-21T07:56:30;6.10;99.90
8436;DHT22;4255;48.730;9.156;2022-11-21T07:58:55;6.10;99.90
8436;DHT22;4255;48.730;9.156;2022-11-21T08:01:21;5.80;99.90
8436;DHT22;4255;48.730;9.156;2022-11-21T08:03:47;5.90;99.90
8436;DHT22;4255;48.730;9.156;2022-11-21T08:06:12;5.70;99.90
8436;DHT22;4255;48.730;9.156;2022-11-21T08:08:38;5.70;99.90
8436;DHT22;4255;48.730;9.156;2022-11-21T08:11:04;5.60;99.90
8436;DHT22;4255;48.730;9.156;2022-11-21T08:13:30;5.80;99.90
8436;DHT22;4255;48.730;9.156;2022-11-21T08:15:56;5.80;99.90
8436;DHT22;4255;48.730;9.156;2022-11-21T08:18:22;5.90;99.90
8436;DHT22;4255;48.730;9.156;2022-11-21T08:20:48;5.90;99.90
8436;DHT22;4255;48.730;9.156;2022-11-21T08:23:14;6.00;99.90
8436;DHT22;4255;48.730;9.156;2022-11-21T08:25:40;6.20;99.90
8436;DHT22;4255;48.730;9.156;2022-11-21T08:28:07;6.30;99.90
8436;DHT22;4255;48.730;9.156;2022-11-21T08:30:34;6.40;99.90
8436;DHT22;4255;48.730;9.156;2022-11-21T08:33:00;6.50;99.90
8436;DHT22;4255;48.730;9.156;2022-11-21T08:35:27;6.60;99.90
8436;DHT22;4255;48.730;9.156;2022-11-21T08:38:00;6.70;99.90
8436;DHT22;4255;48.730;9.156;2022-11-21T08:40:27;6.50;99.90
8436;DHT22;4255;48.730;9.156;2022-11-21T08:43:22;6.50;99.90
8436;DHT22;4255;48.730;9.156;2022-11-21T08:45:47;6.70;99.90
8436;DHT22;4255;48.730;9.156;2022-11-21T08:48:13;6.80;99.90
8436;DHT22;4255;48.730;9.156;2022-11-21T08:50:39;6.90;99.90
8436;DHT22;4255;48.730;9.156;2022-11-21T08:53:04;7.30;99.90
8436;DHT22;4255;48.730;9.156;2022-11-21T08:55:30;7.40;99.90
8436;DHT22;4255;48.730;9.156;2022-11-21T08:57:55;7.70;99.90
8436;DHT22;4255;48.730;9.156;2022-11-21T09:00:21;7.70;99.90
8436;DHT22;4255;48.730;9.156;2022-11-21T09:02:47;7.80;99.90
8436;DHT22;4255;48.730;9.156;2022-11-21T09:05:12;9.60;99.90
8436;DHT22;4255;48.730;9.156;2022-11-21T09:07:38;8.10;99.90
8436;DHT22;4255;48.730;9.156;2022-11-21T09:10:06;8.30;99.90
8436;DHT22;4255;48.730;9.156;2022-11-21T09:12:31;8.40;99.90
8436;DHT22;4255;48.730;9.156;2022-11-21T09:14:57;8.40;99.90
8436;DHT22;4255;48.730;9.156;2022-11-21T09:17:41;8.30;99.90
8436;DHT22;4255;48.730;9.156;2022-11-21T09:20:25;8.20;99.90
8436;DHT22;4255;48.730;9.156;2022-11-21T09:22:50;8.20;99.90
8436;DHT22;4255;48.730;9.156;2022-11-21T09:25:16;8.10;99.90
8436;DHT22;4255;48.730;9.156;2022-11-21T09:27:42;8.10;99.90
8436;DHT22;4255;48.730;9.156;2022-11-21T09:30:07;8.20;99.90
8436;DHT22;4255;48.730;9.156;2022-11-21T09:32:33;8.20;99.90
8436;DHT22;4255;48.730;9.156;2022-11-21T09:34:59;8.20;99.90
8436;DHT22;4255;48.730;9.156;2022-11-21T09:37:24;8.30;99.90
8436;DHT22;4255;48.730;9.156;2022-11-21T09:39:50;8.30;99.90
8436;DHT22;4255;48.730;9.156;2022-11-21T09:42:30;8.20;99.90
8436;DHT22;4255;48.730;9.156;2022-11-21T09:45:02;8.30;99.90
8436;DHT22;4255;48.730;9.156;2022-11-21T09:47:31;8.30;99.90
8436;DHT22;4255;48.730;9.156;2022-11-21T09:50:01;8.10;99.90
8436;DHT22;4255;48.730;9.156;2022-11-21T09:52:36;8.00;99.90
8436;DHT22;4255;48.730;9.156;2022-11-21T09:55:06;8.10;99.90
8436;DHT22;4255;48.730;9.156;2022-11-21T09:57:35;8.00;99.90
8436;DHT22;4255;48.730;9.156;2022-11-21T10:00:03;8.10;99.90
8436;DHT22;4255;48.730;9.156;2022-11-21T10:02:38;8.20;99.90
8436;DHT22;4255;48.730;9.156;2022-11-21T10:05:11;8.20;99.90
8436;DHT22;4255;48.730;9.156;2022-11-21T10:07:37;8.40;99.90
8436;DHT22;4255;48.730;9.156;2022-11-21T10:10:17;8.30;99.90
8436;DHT22;4255;48.730;9.156;2022-11-21T10:20:32;8.40;99.90
8436;DHT22;4255;48.730;9.156;2022-11-21T10:25:55;8.70;99.90
8436;DHT22;4255;48.730;9.156;2022-11-21T10:28:33;8.80;99.90
8436;DHT22;4255;48.730;9.156;2022-11-21T10:31:03;8.90;99.90
8436;DHT22;4255;48.730;9.156;2022-11-21T10:33:34;9.00;99.90
8436;DHT22;4255;48.730;9.156;2022-11-21T10:38:48;9.10;99.90
8436;DHT22;4255;48.730;9.156;2022-11-21T10:47:22;9.00;99.90
8436;DHT22;4255;48.730;9.156;2022-11-21T10:50:23;9.10;99.90
8436;DHT22;4255;48.730;9.156;2022-11-21T10:58:46;9.30;99.90
8436;DHT22;4255;48.730;9.156;2022-11-21T11:06:40;9.50;99.90
8436;DHT22;4255;48.730;9.156;2022-11-21T11:09:08;9.70;99.90
8436;DHT22;4255;48.730;9.156;2022-11-21T11:11:46;9.40;99.90
8436;DHT22;4255;48.730;9.156;2022-11-21T11:14:12;9.20;99.90
8436;DHT22;4255;48.730;9.156;2022-11-21T11:16:43;9.30;99.90
8436;DHT22;4255;48.730;9.156;2022-11-21T11:35:13;9.20;99.90
8436;DHT22;4255;48.730;9.156;2022-11-21T11:37:20;9.50;99.90
8436;DHT22;4255;48.730;9.156;2022-11-21T11:49:33;9.50;99.90
8436;DHT22;4255;48.730;9.156;2022-11-21T11:52:21;9.30;99.90
8436;DHT22;4255;48.730;9.156;2022-11-21T11:54:55;9.30;99.90
8436;DHT22;4255;48.730;9.156;2022-11-21T11:57:23;9.50;99.90
8436;DHT22;4255;48.730;9.156;2022-11-21T12:00:02;9.70;99.90
8436;DHT22;4255;48.730;9.156;2022-11-21T12:05:20;9.70;99.90
8436;DHT22;4255;48.730;9.156;2022-11-21T12:10:52;9.60;99.90
8436;DHT22;4255;48.730;9.156;2022-11-21T12:13:38;9.50;99.90
8436;DHT22;4255;48.730;9.156;2022-11-21T12:16:09;9.40;99.90
8436;DHT22;4255;48.730;9.156;2022-11-21T12:18:52;9.60;99.90
8436;DHT22;4255;48.730;9.156;2022-11-21T12:21:19;9.60;99.90
8436;DHT22;4255;48.730;9.156;2022-11-21T12:23:46;9.70;99.90
8436;DHT22;4255;48.730;9.156;2022-11-21T12:31:26;10.00;99.90
8436;DHT22;4255;48.730;9.156;2022-11-21T12:42:37;9.90;99.90
8436;DHT22;4255;48.730;9.156;2022-11-21T12:45:31;9.80;99.90
8436;DHT22;4255;48.730;9.156;2022-11-21T12:57:15;10.60;99.90
8436;DHT22;4255;48.730;9.156;2022-11-21T13:05:25;11.20;99.90
8436;DHT22;4255;48.730;9.156;2022-11-21T13:08:06;11.50;99.90
8436;DHT22;4255;48.730;9.156;2022-11-21T13:10:32;11.80;99.90
8436;DHT22;4255;48.730;9.156;2022-11-21T13:13:18;11.70;99.90
8436;DHT22;4255;48.730;9.156;2022-11-21T13:15:57;11.80;99.90
8436;DHT22;4255;48.730;9.156;2022-11-21T13:18:29;11.60;99.90
8436;DHT22;4255;48.730;9.156;2022-11-21T13:20:55;11.30;99.90
8436;DHT22;4255;48.730;9.156;2022-11-21T13:23:41;11.00;99.90
8436;DHT22;4255;48.730;9.156;2022-11-21T13:29:08;10.80;99.90
8436;DHT22;4255;48.730;9.156;2022-11-21T13:31:34;10.70;99.90
8436;DHT22;4255;48.730;9.156;2022-11-21T13:34:01;10.60;99.90
8436;DHT22;4255;48.730;9.156;2022-11-21T13:44:44;11.00;99.90
8436;DHT22;4255;48.730;9.156;2022-11-21T13:55:38;10.50;99.90
8436;DHT22;4255;48.730;9.156;2022-11-21T13:58:33;10.50;99.90
8436;DHT22;4255;48.730;9.156;2022-11-21T14:01:31;10.70;99.90
8436;DHT22;4255;48.730;9.156;2022-11-21T14:09:24;10.60;99.90
8436;DHT22;4255;48.730;9.156;2022-11-21T14:12:00;10.60;99.90
8436;DHT22;4255;48.730;9.156;2022-11-21T14:14:42;10.50;99.90
8436;DHT22;4255;48.730;9.156;2022-11-21T14:19:57;10.50;99.90
8436;DHT22;4255;48.730;9.156;2022-11-21T14:22:30;10.50;99.90
8436;DHT22;4255;48.730;9.156;2022-11-21T14:25:06;10.50;99.90
8436;DHT22;4255;48.730;9.156;2022-11-21T14:27:37;10.50;99.90
8436;DHT22;4255;48.730;9.156;2022-11-21T14:30:03;10.30;99.90
8436;DHT22;4255;48.730;9.156;2022-11-21T14:32:29;10.20;99.90
8436;DHT22;4255;48.730;9.156;2022-11-21T14:35:08;10.10;99.90
8436;DHT22;4255;48.730;9.156;2022-11-21T14:37:34;10.30;99.90
8436;DHT22;4255;48.730;9.156;2022-11-21T14:40:03;10.30;99.90
8436;DHT22;4255;48.730;9.156;2022-11-21T14:42:35;10.30;99.90
8436;DHT22;4255;48.730;9.156;2022-11-21T14:45:16;10.60;99.90
8436;DHT22;4255;48.730;9.156;2022-11-21T14:47:51;10.60;99.90
8436;DHT22;4255;48.730;9.156;2022-11-21T14:52:47;10.80;99.90
8436;DHT22;4255;48.730;9.156;2022-11-21T14:55:29;10.80;99.90
8436;DHT22;4255;48.730;9.156;2022-11-21T14:57:57;10.80;99.90
8436;DHT22;4255;48.730;9.156;2022-11-21T15:00:25;10.80;99.90
8436;DHT22;4255;48.730;9.156;2022-11-21T15:02:53;10.80;99.90
8436;DHT22;4255;48.730;9.156;2022-11-21T15:05:20;10.70;99.90
8436;DHT22;4255;48.730;9.156;2022-11-21T15:07:48;10.70;99.90
8436;DHT22;4255;48.730;9.156;2022-11-21T15:10:16;10.70;99.90
8436;DHT22;4255;48.730;9.156;2022-11-21T15:17:47;10.10;99.90
8436;DHT22;4255;48.730;9.156;2022-11-21T15:20:16;10.00;99.90
8436;DHT22;4255;48.730;9.156;2022-11-21T15:22:42;10.00;99.90
8436;DHT22;4255;48.730;9.156;2022-11-21T15:25:19;10.00;99.90
8436;DHT22;4255;48.730;9.156;2022-11-21T15:27:46;9.80;99.90
8436;DHT22;4255;48.730;9.156;2022-11-21T15:33:18;9.60;99.90
8436;DHT22;4255;48.730;9.156;2022-11-21T15:35:48;9.50;99.90
8436;DHT22;4255;48.730;9.156;2022-11-21T15:41:03;9.40;99.90
8436;DHT22;4255;48.730;9.156;2022-11-21T15:46:23;9.20;99.90
8436;DHT22;4255;48.730;9.156;2022-11-21T15:48:51;9.10;99.90
8436;DHT22;4255;48.730;9.156;2022-11-21T15:51:19;8.90;99.90
8436;DHT22;4255;48.730;9.156;2022-11-21T15:53:44;8.70;99.90
8436;DHT22;4255;48.730;9.156;2022-11-21T15:56:13;8.70;99.90
8436;DHT22;4255;48.730;9.156;2022-11-21T15:58:39;8.70;99.90
8436;DHT22;4255;48.730;9.156;2022-11-21T16:01:04;8.70;99.90
8436;DHT22;4255;48.730;9.156;2022-11-21T16:03:30;8.70;99.90
8436;DHT22;4255;48.730;9.156;2022-11-21T16:05:56;8.70;99.90
8436;DHT22;4255;48.730;9.156;2022-11-21T16:08:21;8.50;99.90
8436;DHT22;4255;48.730;9.156;2022-11-21T16:10:47;8.40;99.90
8436;DHT22;4255;48.730;9.156;2022-11-21T16:13:12;8.20;99.90
8436;DHT22;4255;48.730;9.156;2022-11-21T16:15:38;7.90;99.90
8436;DHT22;4255;48.730;9.156;2022-11-21T16:18:04;7.70;99.90
8436;DHT22;4255;48.730;9.156;2022-11-21T16:20:30;7.50;99.90
8436;DHT22;4255;48.730;9.156;2022-11-21T16:22:55;7.50;99.90
8436;DHT22;4255;48.730;9.156;2022-11-21T16:25:21;7.60;99.90
8436;DHT22;4255;48.730;9.156;2022-11-21T16:27:46;7.60;99.90
8436;DHT22;4255;48.730;9.156;2022-11-21T16:30:12;7.40;99.90
8436;DHT22;4255;48.730;9.156;2022-11-21T16:32:38;7.40;99.90
8436;DHT22;4255;48.730;9.156;2022-11-21T16:35:04;7.30;99.90
8436;DHT22;4255;48.730;9.156;2022-11-21T16:37:30;7.20;99.90
8436;DHT22;4255;48.730;9.156;2022-11-21T16:39:56;7.10;99.90
8436;DHT22;4255;48.730;9.156;2022-11-21T16:42:22;7.20;99.90
8436;DHT22;4255;48.730;9.156;2022-11-21T16:44:47;7.30;99.90
8436;DHT22;4255;48.730;9.156;2022-11-21T16:47:13;7.30;99.90
8436;DHT22;4255;48.730;9.156;2022-11-21T16:49:39;7.30;99.90
8436;DHT22;4255;48.730;9.156;2022-11-21T16:52:09;7.20;99.90
8436;DHT22;4255;48.730;9.156;2022-11-21T16:54:35;7.10;99.90
8436;DHT22;4255;48.730;9.156;2022-11-21T16:57:01;7.20;99.90
8436;DHT22;4255;48.730;9.156;2022-11-21T16:59:27;7.00;99.90
8436;DHT22;4255;48.730;9.156;2022-11-21T17:01:53;6.90;99.90
8436;DHT22;4255;48.730;9.156;2022-11-21T17:04:18;6.90;99.90
8436;DHT22;4255;48.730;9.156;2022-11-21T17:06:44;6.90;99.90
8436;DHT22;4255;48.730;9.156;2022-11-21T17:09:10;6.90;99.90
8436;DHT22;4255;48.730;9.156;2022-11-21T17:11:35;6.80;99.90
8436;DHT22;4255;48.730;9.156;2022-11-21T17:14:03;6.90;99.90
8436;DHT22;4255;48.730;9.156;2022-11-21T17:16:30;6.90;99.90
8436;DHT22;4255;48.730;9.156;2022-11-21T17:19:00;6.80;99.90
8436;DHT22;4255;48.730;9.156;2022-11-21T17:21:27;6.90;99.90
8436;DHT22;4255;48.730;9.156;2022-11-21T17:23:53;6.90;99.90
8436;DHT22;4255;48.730;9.156;2022-11-21T17:26:24;6.70;99.90
8436;DHT22;4255;48.730;9.156;2022-11-21T17:28:55;6.80;99.90
8436;DHT22;4255;48.730;9.156;2022-11-21T17:31:21;6.80;99.90
8436;DHT22;4255;48.730;9.156;2022-11-21T17:33:47;6.80;99.90
8436;DHT22;4255;48.730;9.156;2022-11-21T17:36:21;6.80;99.90
8436;DHT22;4255;48.730;9.156;2022-11-21T17:38:47;6.80;99.90
8436;DHT22;4255;48.730;9.156;2022-11-21T17:41:14;6.70;99.90
8436;DHT22;4255;48.730;9.156;2022-11-21T17:43:40;6.40;99.90
8436;DHT22;4255;48.730;9.156;2022-11-21T17:46:11;6.40;99.90
8436;DHT22;4255;48.730;9.156;2022-11-21T17:48:37;6.40;99.90
8436;DHT22;4255;48.730;9.156;2022-11-21T17:53:35;6.40;99.90
8436;DHT22;4255;48.730;9.156;2022-11-21T17:56:03;6.40;99.90
8436;DHT22;4255;48.730;9.156;2022-11-21T17:58:29;6.40;99.90
8436;DHT22;4255;48.730;9.156;2022-11-21T18:00:56;6.50;99.90
8436;DHT22;4255;48.730;9.156;2022-11-21T18:03:22;6.60;99.90
8436;DHT22;4255;48.730;9.156;2022-11-21T18:05:57;6.40;99.90
8436;DHT22;4255;48.730;9.156;2022-11-21T18:08:23;6.40;99.90
8436;DHT22;4255;48.730;9.156;2022-11-21T18:10:52;6.40;99.90
8436;DHT22;4255;48.730;9.156;2022-11-21T18:13:18;6.50;99.90
8436;DHT22;4255;48.730;9.156;2022-11-21T18:15:43;6.50;99.90
8436;DHT22;4255;48.730;9.156;2022-11-21T18:18:09;6.60;99.90
8436;DHT22;4255;48.730;9.156;2022-11-21T18:20:35;6.70;99.90
8436;DHT22;4255;48.730;9.156;2022-11-21T18:23:00;6.80;99.90
8436;DHT22;4255;48.730;9.156;2022-11-21T18:25:26;6.70;99.90
8436;DHT22;4255;48.730;9.156;2022-11-21T18:27:51;6.70;99.90
8436;DHT22;4255;48.730;9.156;2022-11-21T18:30:18;6.70;99.90
8436;DHT22;4255;48.730;9.156;2022-11-21T18:32:47;6.80;99.90
8436;DHT22;4255;48.730;9.156;2022-11-21T18:35:13;7.00;99.90
8436;DHT22;4255;48.730;9.156;2022-11-21T18:37:38;7.10;99.90
8436;DHT22;4255;48.730;9.156;2022-11-21T18:40:04;7.20;99.90
8436;DHT22;4255;48.730;9.156;2022-11-21T18:42:31;7.20;99.90
8436;DHT22;4255;48.730;9.156;2022-11-21T18:44:56;7.40;99.90
8436;DHT22;4255;48.730;9.156;2022-11-21T18:47:22;7.50;99.90
8436;DHT22;4255;48.730;9.156;2022-11-21T18:49:48;7.70;99.90
8436;DHT22;4255;48.730;9.156;2022-11-21T18:52:13;7.70;99.90
8436;DHT22;4255;48.730;9.156;2022-11-21T18:54:39;7.80;99.90
8436;DHT22;4255;48.730;9.156;2022-11-21T18:57:04;7.80;99.90
8436;DHT22;4255;48.730;9.156;2022-11-21T18:59:30;7.80;99.90